sensor_id;sensor_type;location;lat;lon;timestamp;temperature;humidity
1455;DHT22;721;48.168;12.818;2023-04-29T00:00:14;12.50;61.90
1455;DHT22;721;48.168;12.818;2023-04-29T00:02:42;12.50;61.30
1455;DHT22;721;48.168;12.818;2023-04-29T00:05:09;12.50;61.10
1455;DHT22;721;48.168;12.818;2023-04-29T00:07:36;12.40;62.20
1455;DHT22;721;48.168;12.818;2023-04-29T00:10:03;12.40;61.30
1455;DHT22;721;48.168;12.818;2023-04-29T00:12:32;12.40;60.40
1455;DHT22;721;48.168;12.818;2023-04-29T00:14:58;12.40;60.10
1455;DHT22;721;48.168;12.818;2023-04-29T00:17:27;12.30;60.80
1455;DHT22;721;48.168;12.818;2023-04-29T00:19:54;12.30;61.20
1455;DHT22;721;48.168;12.818;2023-04-29T00:22:21;12.20;62.60
1455;DHT22;721;48.168;12.818;2023-04-29T00:24:48;12.10;64.20
1455;DHT22;721;48.168;12.818;2023-04-29T00:27:15;12.10;64.30
1455;DHT22;721;48.168;12.818;2023-04-29T00:29:44;12.00;64.10
1455;DHT22;721;48.168;12.818;2023-04-29T00:32:10;11.90;65.10
1455;DHT22;721;48.168;12.818;2023-04-29T00:34:37;12.00;64.80
1455;DHT22;721;48.168;12.818;2023-04-29T00:37:04;12.10;63.70
1455;DHT22;721;48.168;12.818;2023-04-29T00:39:31;12.10;62.10
1455;DHT22;721;48.168;12.818;2023-04-29T00:41:59;12.20;60.40
1455;DHT22;721;48.168;12.818;2023-04-29T00:44:28;12.20;58.70
1455;DHT22;721;48.168;12.818;2023-04-29T00:46:56;12.20;57.00
1455;DHT22;721;48.168;12.818;2023-04-29T00:49:23;12.30;57.50
1455;DHT22;721;48.168;12.818;2023-04-29T00:51:50;12.20;58.20
1455;DHT22;721;48.168;12.818;2023-04-29T00:54:17;12.20;57.80
1455;DHT22;721;48.168;12.818;2023-04-29T00:56:45;12.10;59.20
1455;DHT22;721;48.168;12.818;2023-04-29T00:59:12;12.10;59.20
1455;DHT22;721;48.168;12.818;2023-04-29T01:01:40;12.10;59.60
1455;DHT22;721;48.168;12.818;2023-04-29T01:04:08;12.10;59.20
1455;DHT22;721;48.168;12.818;2023-04-29T01:06:54;12.10;59.90
1455;DHT22;721;48.168;12.818;2023-04-29T01:09:33;12.00;60.50
1455;DHT22;721;48.168;12.818;2023-04-29T01:12:10;12.00;61.10
1455;DHT22;721;48.168;12.818;2023-04-29T01:14:42;12.10;61.00
1455;DHT22;721;48.168;12.818;2023-04-29T01:17:17;12.00;61.50
1455;DHT22;721;48.168;12.818;2023-04-29T01:19:47;12.00;62.20
1455;DHT22;721;48.168;12.818;2023-04-29T01:22:15;12.10;61.00
1455;DHT22;721;48.168;12.818;2023-04-29T01:24:44;12.20;60.60
1455;DHT22;721;48.168;12.818;2023-04-29T01:27:20;12.10;60.30
1455;DHT22;721;48.168;12.818;2023-04-29T01:29:55;12.00;59.70
1455;DHT22;721;48.168;12.818;2023-04-29T01:32:31;12.00;59.50
1455;DHT22;721;48.168;12.818;2023-04-29T01:35:06;12.00;59.30
1455;DHT22;721;48.168;12.818;2023-04-29T01:37:40;12.50;59.20
1455;DHT22;721;48.168;12.818;2023-04-29T01:40:15;11.90;58.40
1455;DHT22;721;48.168;12.818;2023-04-29T01:42:45;11.90;58.80
1455;DHT22;721;48.168;12.818;2023-04-29T01:45:15;11.90;58.90
1455;DHT22;721;48.168;12.818;2023-04-29T01:47:44;11.80;58.30
1455;DHT22;721;48.168;12.818;2023-04-29T01:50:11;11.70;59.40
1455;DHT22;721;48.168;12.818;2023-04-29T01:52:39;11.70;58.40
1455;DHT22;721;48.168;12.818;2023-04-29T01:55:06;11.50;59.30
1455;DHT22;721;48.168;12.818;2023-04-29T01:57:34;11.50;60.00
1455;DHT22;721;48.168;12.818;2023-04-29T02:00:01;11.40;61.50
1455;DHT22;721;48.168;12.818;2023-04-29T02:02:29;11.40;62.50
1455;DHT22;721;48.168;12.818;2023-04-29T02:04:56;11.40;64.60
1455;DHT22;721;48.168;12.818;2023-04-29T02:07:23;11.40;64.70
1455;DHT22;721;48.168;12.818;2023-04-29T02:09:50;11.50;62.60
1455;DHT22;721;48.168;12.818;2023-04-29T02:12:17;11.50;62.80
1455;DHT22;721;48.168;12.818;2023-04-29T02:14:45;11.50;62.50
1455;DHT22;721;48.168;12.818;2023-04-29T02:17:12;11.70;60.40
1455;DHT22;721;48.168;12.818;2023-04-29T02:19:39;11.50;61.30
1455;DHT22;721;48.168;12.818;2023-04-29T02:22:06;11.50;61.00
1455;DHT22;721;48.168;12.818;2023-04-29T02:24:33;11.50;59.80
1455;DHT22;721;48.168;12.818;2023-04-29T02:26:59;11.50;60.80
1455;DHT22;721;48.168;12.818;2023-04-29T02:29:30;11.50;59.90
1455;DHT22;721;48.168;12.818;2023-04-29T02:31:59;11.50;60.50
1455;DHT22;721;48.168;12.818;2023-04-29T02:34:26;11.60;60.80
1455;DHT22;721;48.168;12.818;2023-04-29T02:36:53;11.50;60.00
1455;DHT22;721;48.168;12.818;2023-04-29T02:39:20;11.40;63.50
1455;DHT22;721;48.168;12.818;2023-04-29T02:41:47;11.40;63.00
1455;DHT22;721;48.168;12.818;2023-04-29T02:44:14;11.40;63.80
1455;DHT22;721;48.168;12.818;2023-04-29T02:46:41;11.30;63.60
1455;DHT22;721;48.168;12.818;2023-04-29T02:49:12;11.40;64.70
1455;DHT22;721;48.168;12.818;2023-04-29T02:51:39;11.40;64.70
1455;DHT22;721;48.168;12.818;2023-04-29T02:54:06;11.40;64.60
1455;DHT22;721;48.168;12.818;2023-04-29T02:56:33;11.40;63.40
1455;DHT22;721;48.168;12.818;2023-04-29T02:59:00;11.50;62.60
1455;DHT22;721;48.168;12.818;2023-04-29T03:01:27;11.50;63.50
1455;DHT22;721;48.168;12.818;2023-04-29T03:03:54;11.50;63.00
1455;DHT22;721;48.168;12.818;2023-04-29T03:06:23;11.40;62.90
1455;DHT22;721;48.168;12.818;2023-04-29T03:08:50;11.50;63.10
1455;DHT22;721;48.168;12.818;2023-04-29T03:11:17;11.50;61.10
1455;DHT22;721;48.168;12.818;2023-04-29T03:13:44;11.50;60.50
1455;DHT22;721;48.168;12.818;2023-04-29T03:16:11;11.50;60.40
1455;DHT22;721;48.168;12.818;2023-04-29T03:18:41;11.50;60.40
1455;DHT22;721;48.168;12.818;2023-04-29T03:21:08;11.50;59.70
1455;DHT22;721;48.168;12.818;2023-04-29T03:23:36;11.50;59.50
1455;DHT22;721;48.168;12.818;2023-04-29T03:26:04;11.50;59.00
1455;DHT22;721;48.168;12.818;2023-04-29T03:28:31;11.50;60.50
1455;DHT22;721;48.168;12.818;2023-04-29T03:30:58;11.50;60.40
1455;DHT22;721;48.168;12.818;2023-04-29T03:33:25;11.50;60.90
1455;DHT22;721;48.168;12.818;2023-04-29T03:35:52;11.40;61.30
1455;DHT22;721;48.168;12.818;2023-04-29T03:38:20;11.40;62.30
1455;DHT22;721;48.168;12.818;2023-04-29T03:40:48;11.30;62.10
1455;DHT22;721;48.168;12.818;2023-04-29T03:43:15;11.10;64.20
1455;DHT22;721;48.168;12.818;2023-04-29T03:45:42;11.10;64.40
1455;DHT22;721;48.168;12.818;2023-04-29T03:48:08;11.10;65.00
1455;DHT22;721;48.168;12.818;2023-04-29T03:50:37;11.00;65.50
1455;DHT22;721;48.168;12.818;2023-04-29T03:53:03;11.10;65.20
1455;DHT22;721;48.168;12.818;2023-04-29T03:55:30;11.10;65.50
1455;DHT22;721;48.168;12.818;2023-04-29T03:57:58;11.10;65.50
1455;DHT22;721;48.168;12.818;2023-04-29T04:00:25;11.10;65.00
1455;DHT22;721;48.168;12.818;2023-04-29T04:02:55;11.10;65.50
1455;DHT22;721;48.168;12.818;2023-04-29T04:05:22;11.20;65.20
1455;DHT22;721;48.168;12.818;2023-04-29T04:07:49;11.30;65.50
1455;DHT22;721;48.168;12.818;2023-04-29T04:10:16;11.30;64.60
1455;DHT22;721;48.168;12.818;2023-04-29T04:12:43;11.40;64.00
1455;DHT22;721;48.168;12.818;2023-04-29T04:15:11;11.50;62.80
1455;DHT22;721;48.168;12.818;2023-04-29T04:17:38;11.50;61.90
1455;DHT22;721;48.168;12.818;2023-04-29T04:20:06;11.60;61.20
1455;DHT22;721;48.168;12.818;2023-04-29T04:22:33;11.60;61.80
1455;DHT22;721;48.168;12.818;2023-04-29T04:25:00;12.20;61.30
1455;DHT22;721;48.168;12.818;2023-04-29T04:27:27;11.70;60.40
1455;DHT22;721;48.168;12.818;2023-04-29T04:29:54;11.80;60.70
1455;DHT22;721;48.168;12.818;2023-04-29T04:32:22;11.70;61.80
1455;DHT22;721;48.168;12.818;2023-04-29T04:34:49;11.70;61.40
1455;DHT22;721;48.168;12.818;2023-04-29T04:37:16;11.70;61.30
1455;DHT22;721;48.168;12.818;2023-04-29T04:39:43;11.70;61.00
1455;DHT22;721;48.168;12.818;2023-04-29T04:42:10;11.70;61.10
1455;DHT22;721;48.168;12.818;2023-04-29T04:44:36;11.80;61.10
1455;DHT22;721;48.168;12.818;2023-04-29T04:47:03;11.80;62.20
1455;DHT22;721;48.168;12.818;2023-04-29T04:49:32;11.90;62.30
1455;DHT22;721;48.168;12.818;2023-04-29T04:51:58;12.00;62.00
1455;DHT22;721;48.168;12.818;2023-04-29T04:54:25;12.00;60.90
1455;DHT22;721;48.168;12.818;2023-04-29T04:56:52;12.00;62.60
1455;DHT22;721;48.168;12.818;2023-04-29T04:59:19;12.00;62.60
1455;DHT22;721;48.168;12.818;2023-04-29T05:01:46;12.00;63.00
1455;DHT22;721;48.168;12.818;2023-04-29T05:04:12;12.10;62.60
1455;DHT22;721;48.168;12.818;2023-04-29T05:06:41;12.10;62.70
1455;DHT22;721;48.168;12.818;2023-04-29T05:09:08;12.10;60.80
1455;DHT22;721;48.168;12.818;2023-04-29T05:11:35;12.20;59.20
1455;DHT22;721;48.168;12.818;2023-04-29T05:14:02;12.10;60.00
1455;DHT22;721;48.168;12.818;2023-04-29T05:16:29;12.10;61.00
1455;DHT22;721;48.168;12.818;2023-04-29T05:18:56;12.10;61.00
1455;DHT22;721;48.168;12.818;2023-04-29T05:21:23;12.20;61.10
1455;DHT22;721;48.168;12.818;2023-04-29T05:23:51;12.20;61.60
1455;DHT22;721;48.168;12.818;2023-04-29T05:26:18;12.30;60.50
1455;DHT22;721;48.168;12.818;2023-04-29T05:28:45;12.30;60.80
1455;DHT22;721;48.168;12.818;2023-04-29T05:31:12;12.30;61.30
1455;DHT22;721;48.168;12.818;2023-04-29T05:33:39;12.40;60.00
1455;DHT22;721;48.168;12.818;2023-04-29T05:36:06;12.40;62.20
1455;DHT22;721;48.168;12.818;2023-04-29T05:38:33;12.40;61.30
1455;DHT22;721;48.168;12.818;2023-04-29T05:41:01;12.50;60.10
1455;DHT22;721;48.168;12.818;2023-04-29T05:43:28;12.50;61.20
1455;DHT22;721;48.168;12.818;2023-04-29T05:45:55;12.50;62.10
1455;DHT22;721;48.168;12.818;2023-04-29T05:48:21;12.60;65.70
1455;DHT22;721;48.168;12.818;2023-04-29T05:50:49;12.70;65.80
1455;DHT22;721;48.168;12.818;2023-04-29T05:53:16;12.70;64.10
1455;DHT22;721;48.168;12.818;2023-04-29T05:55:42;12.80;63.50
1455;DHT22;721;48.168;12.818;2023-04-29T05:58:12;12.90;64.50
1455;DHT22;721;48.168;12.818;2023-04-29T06:00:39;12.90;64.30
1455;DHT22;721;48.168;12.818;2023-04-29T06:03:08;13.00;67.20
1455;DHT22;721;48.168;12.818;2023-04-29T06:05:35;13.20;68.90
1455;DHT22;721;48.168;12.818;2023-04-29T06:08:03;13.20;68.10
1455;DHT22;721;48.168;12.818;2023-04-29T06:10:30;13.30;67.30
1455;DHT22;721;48.168;12.818;2023-04-29T06:12:57;13.40;66.50
1455;DHT22;721;48.168;12.818;2023-04-29T06:15:26;13.40;66.90
1455;DHT22;721;48.168;12.818;2023-04-29T06:17:52;13.50;69.90
1455;DHT22;721;48.168;12.818;2023-04-29T06:20:19;13.40;70.10
1455;DHT22;721;48.168;12.818;2023-04-29T06:22:46;13.50;70.30
1455;DHT22;721;48.168;12.818;2023-04-29T06:25:13;13.60;68.10
1455;DHT22;721;48.168;12.818;2023-04-29T06:27:40;13.60;70.20
1455;DHT22;721;48.168;12.818;2023-04-29T06:30:08;13.70;69.70
1455;DHT22;721;48.168;12.818;2023-04-29T06:32:37;13.80;69.30
1455;DHT22;721;48.168;12.818;2023-04-29T06:35:05;13.80;68.00
1455;DHT22;721;48.168;12.818;2023-04-29T06:37:32;13.90;66.50
1455;DHT22;721;48.168;12.818;2023-04-29T06:39:58;14.00;67.80
1455;DHT22;721;48.168;12.818;2023-04-29T06:42:25;14.10;66.80
1455;DHT22;721;48.168;12.818;2023-04-29T06:44:52;14.10;69.20
1455;DHT22;721;48.168;12.818;2023-04-29T06:47:19;14.30;72.10
1455;DHT22;721;48.168;12.818;2023-04-29T06:49:48;14.30;70.90
1455;DHT22;721;48.168;12.818;2023-04-29T06:52:14;14.40;67.30
1455;DHT22;721;48.168;12.818;2023-04-29T06:54:41;14.40;67.30
1455;DHT22;721;48.168;12.818;2023-04-29T06:57:08;14.60;66.10
1455;DHT22;721;48.168;12.818;2023-04-29T06:59:35;14.70;67.30
1455;DHT22;721;48.168;12.818;2023-04-29T07:02:02;14.70;63.50
1455;DHT22;721;48.168;12.818;2023-04-29T07:04:28;14.80;63.00
1455;DHT22;721;48.168;12.818;2023-04-29T07:06:56;14.80;62.80
1455;DHT22;721;48.168;12.818;2023-04-29T07:09:24;14.80;65.60
1455;DHT22;721;48.168;12.818;2023-04-29T07:11:52;14.70;64.00
1455;DHT22;721;48.168;12.818;2023-04-29T07:14:19;14.80;66.40
1455;DHT22;721;48.168;12.818;2023-04-29T07:16:47;14.80;59.10
1455;DHT22;721;48.168;12.818;2023-04-29T07:19:18;14.80;64.80
1455;DHT22;721;48.168;12.818;2023-04-29T07:21:45;14.90;62.20
1455;DHT22;721;48.168;12.818;2023-04-29T07:24:13;14.90;59.20
1455;DHT22;721;48.168;12.818;2023-04-29T07:26:42;14.90;61.00
1455;DHT22;721;48.168;12.818;2023-04-29T07:29:08;14.90;60.80
1455;DHT22;721;48.168;12.818;2023-04-29T07:31:35;14.80;56.50
1455;DHT22;721;48.168;12.818;2023-04-29T07:34:03;14.90;58.80
1455;DHT22;721;48.168;12.818;2023-04-29T07:36:30;15.10;59.40
1455;DHT22;721;48.168;12.818;2023-04-29T07:38:57;15.30;53.00
1455;DHT22;721;48.168;12.818;2023-04-29T07:41:25;15.20;50.10
1455;DHT22;721;48.168;12.818;2023-04-29T07:43:52;15.10;50.30
1455;DHT22;721;48.168;12.818;2023-04-29T07:46:19;15.10;52.60
1455;DHT22;721;48.168;12.818;2023-04-29T07:48:46;15.10;47.00
1455;DHT22;721;48.168;12.818;2023-04-29T07:51:14;15.00;51.80
1455;DHT22;721;48.168;12.818;2023-04-29T07:53:40;15.20;51.90
1455;DHT22;721;48.168;12.818;2023-04-29T07:56:08;15.30;45.40
1455;DHT22;721;48.168;12.818;2023-04-29T07:58:36;15.40;47.10
1455;DHT22;721;48.168;12.818;2023-04-29T08:01:06;15.40;44.50
1455;DHT22;721;48.168;12.818;2023-04-29T08:03:34;15.40;47.80
1455;DHT22;721;48.168;12.818;2023-04-29T08:06:01;15.60;52.80
1455;DHT22;721;48.168;12.818;2023-04-29T08:08:29;15.70;52.60
1455;DHT22;721;48.168;12.818;2023-04-29T08:10:56;15.70;43.60
1455;DHT22;721;48.168;12.818;2023-04-29T08:13:23;15.70;44.20
1455;DHT22;721;48.168;12.818;2023-04-29T08:15:51;15.80;38.70
1455;DHT22;721;48.168;12.818;2023-04-29T08:18:18;16.10;41.70
1455;DHT22;721;48.168;12.818;2023-04-29T08:20:46;16.00;35.50
1455;DHT22;721;48.168;12.818;2023-04-29T08:23:14;16.00;37.70
1455;DHT22;721;48.168;12.818;2023-04-29T08:25:41;15.90;35.30
1455;DHT22;721;48.168;12.818;2023-04-29T08:28:09;16.00;33.70
1455;DHT22;721;48.168;12.818;2023-04-29T08:30:37;16.20;32.80
1455;DHT22;721;48.168;12.818;2023-04-29T08:33:06;16.20;28.60
1455;DHT22;721;48.168;12.818;2023-04-29T08:35:34;16.20;29.70
1455;DHT22;721;48.168;12.818;2023-04-29T08:38:03;16.10;26.20
1455;DHT22;721;48.168;12.818;2023-04-29T08:40:33;16.00;26.40
1455;DHT22;721;48.168;12.818;2023-04-29T08:43:02;16.10;25.00
1455;DHT22;721;48.168;12.818;2023-04-29T08:45:30;16.30;27.60
1455;DHT22;721;48.168;12.818;2023-04-29T08:48:00;16.20;25.40
1455;DHT22;721;48.168;12.818;2023-04-29T08:50:29;16.10;23.20
1455;DHT22;721;48.168;12.818;2023-04-29T08:52:56;16.10;24.90
1455;DHT22;721;48.168;12.818;2023-04-29T08:55:23;16.10;24.50
1455;DHT22;721;48.168;12.818;2023-04-29T08:57:54;16.00;26.10
1455;DHT22;721;48.168;12.818;2023-04-29T09:00:21;16.00;24.60
1455;DHT22;721;48.168;12.818;2023-04-29T09:02:50;16.00;25.80
1455;DHT22;721;48.168;12.818;2023-04-29T09:05:17;16.00;23.10
1455;DHT22;721;48.168;12.818;2023-04-29T09:07:45;16.00;23.90
1455;DHT22;721;48.168;12.818;2023-04-29T09:10:13;16.30;23.30
1455;DHT22;721;48.168;12.818;2023-04-29T09:12:41;16.50;21.60
1455;DHT22;721;48.168;12.818;2023-04-29T09:15:08;16.50;21.30
1455;DHT22;721;48.168;12.818;2023-04-29T09:17:40;16.60;19.50
1455;DHT22;721;48.168;12.818;2023-04-29T09:20:26;16.70;21.20
1455;DHT22;721;48.168;12.818;2023-04-29T09:22:56;17.00;17.30
1455;DHT22;721;48.168;12.818;2023-04-29T09:25:23;16.90;17.20
1455;DHT22;721;48.168;12.818;2023-04-29T09:27:51;17.00;14.50
1455;DHT22;721;48.168;12.818;2023-04-29T09:30:18;17.20;14.20
1455;DHT22;721;48.168;12.818;2023-04-29T09:33:03;17.10;9.60
1455;DHT22;721;48.168;12.818;2023-04-29T09:35:30;16.70;10.50
1455;DHT22;721;48.168;12.818;2023-04-29T09:38:10;16.60;11.30
1455;DHT22;721;48.168;12.818;2023-04-29T09:40:38;16.50;14.10
1455;DHT22;721;48.168;12.818;2023-04-29T09:43:11;16.50;13.30
1455;DHT22;721;48.168;12.818;2023-04-29T09:45:41;16.40;13.80
1455;DHT22;721;48.168;12.818;2023-04-29T09:48:09;16.70;15.00
1455;DHT22;721;48.168;12.818;2023-04-29T09:50:36;16.70;10.50
1455;DHT22;721;48.168;12.818;2023-04-29T09:53:04;16.90;13.00
1455;DHT22;721;48.168;12.818;2023-04-29T09:55:32;17.20;12.10
1455;DHT22;721;48.168;12.818;2023-04-29T09:57:59;17.30;11.70
1455;DHT22;721;48.168;12.818;2023-04-29T10:00:28;17.60;13.40
1455;DHT22;721;48.168;12.818;2023-04-29T10:02:58;17.90;10.60
1455;DHT22;721;48.168;12.818;2023-04-29T10:05:27;18.00;8.50
1455;DHT22;721;48.168;12.818;2023-04-29T10:07:57;18.10;6.80
1455;DHT22;721;48.168;12.818;2023-04-29T10:10:24;18.10;5.70
1455;DHT22;721;48.168;12.818;2023-04-29T10:12:55;18.00;6.20
1455;DHT22;721;48.168;12.818;2023-04-29T10:15:28;17.90;7.90
1455;DHT22;721;48.168;12.818;2023-04-29T10:18:05;18.00;11.10
1455;DHT22;721;48.168;12.818;2023-04-29T10:20:40;18.20;3.20
1455;DHT22;721;48.168;12.818;2023-04-29T10:23:12;18.10;2.80
1455;DHT22;721;48.168;12.818;2023-04-29T10:25:41;18.20;2.80
1455;DHT22;721;48.168;12.818;2023-04-29T10:28:14;18.30;2.70
1455;DHT22;721;48.168;12.818;2023-04-29T10:30:43;18.30;1.40
1455;DHT22;721;48.168;12.818;2023-04-29T10:33:10;18.30;3.60
1455;DHT22;721;48.168;12.818;2023-04-29T10:35:37;18.20;2.30
1455;DHT22;721;48.168;12.818;2023-04-29T10:38:09;18.40;3.10
1455;DHT22;721;48.168;12.818;2023-04-29T10:40:43;18.30;1.20
1455;DHT22;721;48.168;12.818;2023-04-29T10:43:12;18.20;3.10
1455;DHT22;721;48.168;12.818;2023-04-29T10:45:40;18.20;1.00
1455;DHT22;721;48.168;12.818;2023-04-29T10:48:14;17.80;1.80
1455;DHT22;721;48.168;12.818;2023-04-29T10:51:01;17.60;1.80
1455;DHT22;721;48.168;12.818;2023-04-29T10:53:29;17.60;2.30
1455;DHT22;721;48.168;12.818;2023-04-29T10:55:58;17.60;2.00
1455;DHT22;721;48.168;12.818;2023-04-29T10:58:41;17.70;2.40
1455;DHT22;721;48.168;12.818;2023-04-29T11:01:10;17.80;2.20
1455;DHT22;721;48.168;12.818;2023-04-29T11:03:51;18.00;1.00
1455;DHT22;721;48.168;12.818;2023-04-29T11:06:24;18.00;1.00
1455;DHT22;721;48.168;12.818;2023-04-29T11:09:02;17.80;1.00
1455;DHT22;721;48.168;12.818;2023-04-29T11:11:47;18.00;1.00
1455;DHT22;721;48.168;12.818;2023-04-29T11:14:21;18.20;1.00
1455;DHT22;721;48.168;12.818;2023-04-29T11:16:51;18.50;1.00
1455;DHT22;721;48.168;12.818;2023-04-29T11:19:18;18.70;1.00
1455;DHT22;721;48.168;12.818;2023-04-29T11:21:46;18.90;1.00
1455;DHT22;721;48.168;12.818;2023-04-29T11:24:13;18.90;1.00
1455;DHT22;721;48.168;12.818;2023-04-29T11:26:43;18.70;1.00
1455;DHT22;721;48.168;12.818;2023-04-29T11:29:11;18.30;1.00
1455;DHT22;721;48.168;12.818;2023-04-29T11:31:39;18.20;1.00
1455;DHT22;721;48.168;12.818;2023-04-29T11:34:06;18.20;1.00
1455;DHT22;721;48.168;12.818;2023-04-29T11:36:33;18.20;1.00
1455;DHT22;721;48.168;12.818;2023-04-29T11:39:02;18.30;1.00
1455;DHT22;721;48.168;12.818;2023-04-29T11:41:30;18.70;1.00
1455;DHT22;721;48.168;12.818;2023-04-29T11:43:58;18.90;1.00
1455;DHT22;721;48.168;12.818;2023-04-29T11:46:28;19.00;1.00
1455;DHT22;721;48.168;12.818;2023-04-29T11:48:57;18.70;1.00
1455;DHT22;721;48.168;12.818;2023-04-29T11:51:25;18.60;1.00
1455;DHT22;721;48.168;12.818;2023-04-29T11:53:53;18.30;1.00
1455;DHT22;721;48.168;12.818;2023-04-29T11:56:21;18.30;1.00
1455;DHT22;721;48.168;12.818;2023-04-29T11:58:52;18.50;1.00
1455;DHT22;721;48.168;12.818;2023-04-29T12:01:19;18.30;1.00
1455;DHT22;721;48.168;12.818;2023-04-29T12:03:47;18.10;1.00
1455;DHT22;721;48.168;12.818;2023-04-29T12:06:16;17.90;1.00
1455;DHT22;721;48.168;12.818;2023-04-29T12:08:46;17.90;1.00
1455;DHT22;721;48.168;12.818;2023-04-29T12:11:13;17.90;1.00
1455;DHT22;721;48.168;12.818;2023-04-29T12:13:40;17.80;1.00
1455;DHT22;721;48.168;12.818;2023-04-29T12:16:07;17.90;1.00
1455;DHT22;721;48.168;12.818;2023-04-29T12:18:35;18.20;1.00
1455;DHT22;721;48.168;12.818;2023-04-29T12:21:03;18.50;1.00
1455;DHT22;721;48.168;12.818;2023-04-29T12:23:34;18.80;1.00
1455;DHT22;721;48.168;12.818;2023-04-29T12:26:01;18.80;1.00
1455;DHT22;721;48.168;12.818;2023-04-29T12:28:29;18.90;1.00
1455;DHT22;721;48.168;12.818;2023-04-29T12:30:57;19.00;1.00
1455;DHT22;721;48.168;12.818;2023-04-29T12:33:27;19.20;1.00
1455;DHT22;721;48.168;12.818;2023-04-29T12:35:56;18.90;1.00
1455;DHT22;721;48.168;12.818;2023-04-29T12:38:24;19.10;1.00
1455;DHT22;721;48.168;12.818;2023-04-29T12:40:53;19.20;1.00
1455;DHT22;721;48.168;12.818;2023-04-29T12:43:25;19.20;1.00
1455;DHT22;721;48.168;12.818;2023-04-29T12:45:53;19.30;1.00
1455;DHT22;721;48.168;12.818;2023-04-29T12:48:20;19.50;1.00
1455;DHT22;721;48.168;12.818;2023-04-29T12:50:48;19.50;1.00
1455;DHT22;721;48.168;12.818;2023-04-29T12:53:16;19.40;1.00
1455;DHT22;721;48.168;12.818;2023-04-29T12:55:42;19.50;1.00
1455;DHT22;721;48.168;12.818;2023-04-29T12:58:11;19.60;1.00
1455;DHT22;721;48.168;12.818;2023-04-29T13:00:38;19.70;1.00
1455;DHT22;721;48.168;12.818;2023-04-29T13:03:05;19.60;1.00
1455;DHT22;721;48.168;12.818;2023-04-29T13:05:32;19.20;1.00
1455;DHT22;721;48.168;12.818;2023-04-29T13:07:59;19.20;1.00
1455;DHT22;721;48.168;12.818;2023-04-29T13:10:26;19.40;1.00
1455;DHT22;721;48.168;12.818;2023-04-29T13:12:53;19.70;1.00
1455;DHT22;721;48.168;12.818;2023-04-29T13:15:21;19.80;1.00
1455;DHT22;721;48.168;12.818;2023-04-29T13:17:48;19.80;1.00
1455;DHT22;721;48.168;12.818;2023-04-29T13:20:16;20.00;1.00
1455;DHT22;721;48.168;12.818;2023-04-29T13:22:43;19.80;1.00
1455;DHT22;721;48.168;12.818;2023-04-29T13:25:10;19.80;1.00
1455;DHT22;721;48.168;12.818;2023-04-29T13:27:38;19.80;1.00
1455;DHT22;721;48.168;12.818;2023-04-29T13:30:05;19.70;1.00
1455;DHT22;721;48.168;12.818;2023-04-29T13:32:34;19.50;1.00
1455;DHT22;721;48.168;12.818;2023-04-29T13:35:01;19.60;1.00
1455;DHT22;721;48.168;12.818;2023-04-29T13:37:28;19.90;1.00
1455;DHT22;721;48.168;12.818;2023-04-29T13:39:55;20.50;1.00
1455;DHT22;721;48.168;12.818;2023-04-29T13:42:22;20.20;1.00
1455;DHT22;721;48.168;12.818;2023-04-29T13:44:49;20.60;1.00
1455;DHT22;721;48.168;12.818;2023-04-29T13:47:16;20.00;1.00
1455;DHT22;721;48.168;12.818;2023-04-29T13:49:44;20.10;1.00
1455;DHT22;721;48.168;12.818;2023-04-29T13:52:11;20.10;1.00
1455;DHT22;721;48.168;12.818;2023-04-29T13:54:38;20.50;1.00
1455;DHT22;721;48.168;12.818;2023-04-29T13:57:05;20.60;1.00
1455;DHT22;721;48.168;12.818;2023-04-29T13:59:33;20.40;1.00
1455;DHT22;721;48.168;12.818;2023-04-29T14:02:01;20.20;1.00
1455;DHT22;721;48.168;12.818;2023-04-29T14:04:28;19.90;1.00
1455;DHT22;721;48.168;12.818;2023-04-29T14:06:57;19.80;1.00
1455;DHT22;721;48.168;12.818;2023-04-29T14:09:24;19.60;1.00
1455;DHT22;721;48.168;12.818;2023-04-29T14:11:50;19.50;1.00
1455;DHT22;721;48.168;12.818;2023-04-29T14:14:18;19.60;1.00
1455;DHT22;721;48.168;12.818;2023-04-29T14:16:45;20.10;1.00
1455;DHT22;721;48.168;12.818;2023-04-29T14:19:12;19.80;1.00
1455;DHT22;721;48.168;12.818;2023-04-29T14:21:39;19.90;1.00
1455;DHT22;721;48.168;12.818;2023-04-29T14:24:07;19.30;1.00
1455;DHT22;721;48.168;12.818;2023-04-29T14:26:34;19.50;1.00
1455;DHT22;721;48.168;12.818;2023-04-29T14:29:01;19.40;1.00
1455;DHT22;721;48.168;12.818;2023-04-29T14:31:29;19.30;1.00
1455;DHT22;721;48.168;12.818;2023-04-29T14:33:56;19.20;1.00
1455;DHT22;721;48.168;12.818;2023-04-29T14:36:24;19.30;1.00
1455;DHT22;721;48.168;12.818;2023-04-29T14:38:50;19.50;1.00
1455;DHT22;721;48.168;12.818;2023-04-29T14:41:19;19.50;1.00
1455;DHT22;721;48.168;12.818;2023-04-29T14:43:46;19.60;1.00
1455;DHT22;721;48.168;12.818;2023-04-29T14:46:13;19.70;1.00
1455;DHT22;721;48.168;12.818;2023-04-29T14:48:40;20.10;1.00
1455;DHT22;721;48.168;12.818;2023-04-29T14:51:07;19.90;1.00
1455;DHT22;721;48.168;12.818;2023-04-29T14:53:37;19.40;1.00
1455;DHT22;721;48.168;12.818;2023-04-29T14:56:05;20.30;1.00
1455;DHT22;721;48.168;12.818;2023-04-29T15:01:27;20.70;1.00
1455;DHT22;721;48.168;12.818;2023-04-29T15:03:54;19.80;1.00
1455;DHT22;721;48.168;12.818;2023-04-29T15:06:21;19.40;1.00
1455;DHT22;721;48.168;12.818;2023-04-29T15:08:48;19.70;1.00
1455;DHT22;721;48.168;12.818;2023-04-29T15:11:15;19.80;1.00
1455;DHT22;721;48.168;12.818;2023-04-29T15:13:43;19.90;1.00
1455;DHT22;721;48.168;12.818;2023-04-29T15:16:10;19.90;1.00
1455;DHT22;721;48.168;12.818;2023-04-29T15:18:36;19.70;1.00
1455;DHT22;721;48.168;12.818;2023-04-29T15:21:03;19.70;1.00
1455;DHT22;721;48.168;12.818;2023-04-29T15:23:30;19.50;1.00
1455;DHT22;721;48.168;12.818;2023-04-29T15:25:57;19.70;1.00
1455;DHT22;721;48.168;12.818;2023-04-29T15:28:24;19.90;1.00
1455;DHT22;721;48.168;12.818;2023-04-29T15:30:53;20.10;1.00
1455;DHT22;721;48.168;12.818;2023-04-29T15:33:19;20.00;1.00
1455;DHT22;721;48.168;12.818;2023-04-29T15:35:46;20.00;1.00
1455;DHT22;721;48.168;12.818;2023-04-29T15:38:13;19.90;1.00
1455;DHT22;721;48.168;12.818;2023-04-29T15:40:40;19.70;1.00
1455;DHT22;721;48.168;12.818;2023-04-29T15:43:06;19.40;1.00
1455;DHT22;721;48.168;12.818;2023-04-29T15:45:33;19.20;1.00
1455;DHT22;721;48.168;12.818;2023-04-29T15:48:01;19.10;1.00
1455;DHT22;721;48.168;12.818;2023-04-29T15:50:28;19.20;1.00
1455;DHT22;721;48.168;12.818;2023-04-29T15:52:55;19.00;1.00
1455;DHT22;721;48.168;12.818;2023-04-29T15:55:25;19.00;1.00
1455;DHT22;721;48.168;12.818;2023-04-29T15:57:51;19.00;1.00
1455;DHT22;721;48.168;12.818;2023-04-29T16:00:18;19.20;1.00
1455;DHT22;721;48.168;12.818;2023-04-29T16:02:45;19.10;1.00
1455;DHT22;721;48.168;12.818;2023-04-29T16:05:13;19.50;1.00
1455;DHT22;721;48.168;12.818;2023-04-29T16:07:40;19.50;1.00
1455;DHT22;721;48.168;12.818;2023-04-29T16:10:07;19.60;1.00
1455;DHT22;721;48.168;12.818;2023-04-29T16:12:34;20.00;1.00
1455;DHT22;721;48.168;12.818;2023-04-29T16:15:01;20.00;1.00